Time;durP1;ratioP1;P1;durP2;ratioP2;P2;SDS_P1;SDS_P2;PMS_P1;PMS_P2;Temp;Humidity;BMP_temperature;BMP_pressure;BME280_temperature;BME280_humidity;BME280_pressure;Samples;Min_cycle;Max_cycle;Signal;HPM_P1;HPM_P2
2024/02/22 00:01:18;;;;;;;9.57;8.93;;;12.00;99.90;;;;;;4866591;29;20222;-76
2024/02/22 00:03:46;;;;;;;9.70;9.07;;;12.00;99.90;;;;;;4863088;29;20227;-76
2024/02/22 00:06:13;;;;;;;9.60;9.00;;;12.00;99.90;;;;;;4866098;29;20270;-77
2024/02/22 00:08:40;;;;;;;9.63;9.03;;;12.00;99.90;;;;;;4862392;29;20221;-77
2024/02/22 00:11:07;;;;;;;9.40;8.80;;;12.00;99.90;;;;;;4868099;29;20232;-76
2024/02/22 00:13:34;;;;;;;10.40;9.60;;;12.00;99.90;;;;;;4865154;29;20269;-77
2024/02/22 00:16:03;;;;;;;10.00;9.30;;;12.00;99.90;;;;;;4866016;29;20224;-77
2024/02/22 00:18:30;;;;;;;9.60;9.00;;;12.10;99.90;;;;;;4866890;29;20651;-77
2024/02/22 00:20:58;;;;;;;9.13;8.63;;;12.10;99.90;;;;;;4864852;29;20572;-77
2024/02/22 00:23:25;;;;;;;9.70;9.10;;;12.10;99.90;;;;;;4866265;29;20214;-77
2024/02/22 00:25:52;;;;;;;9.97;9.33;;;12.10;99.90;;;;;;4863905;29;20662;-76
2024/02/22 00:28:19;;;;;;;10.20;9.50;;;12.10;99.90;;;;;;4862026;29;20264;-77
2024/02/22 00:30:46;;;;;;;9.90;9.20;;;12.10;99.90;;;;;;4862270;29;20222;-76
2024/02/22 00:33:13;;;;;;;10.00;9.40;;;12.10;99.90;;;;;;4866791;29;20198;-77
2024/02/22 00:35:40;;;;;;;10.00;9.30;;;12.10;99.90;;;;;;4864941;29;20294;-77
2024/02/22 00:38:08;;;;;;;9.60;8.90;;;12.10;99.90;;;;;;4865888;29;20201;-77
2024/02/22 00:40:35;;;;;;;9.17;8.57;;;12.10;99.90;;;;;;4866426;29;20218;-76
2024/02/22 00:43:02;;;;;;;9.80;9.10;;;12.00;99.90;;;;;;4866111;29;20202;-77
2024/02/22 00:45:33;;;;;;;9.33;8.70;;;12.00;99.90;;;;;;4861967;29;20226;-77
2024/02/22 00:48:00;;;;;;;9.13;8.53;;;11.90;99.90;;;;;;4864419;29;20238;-77
2024/02/22 00:50:27;;;;;;;9.37;8.73;;;11.90;99.90;;;;;;4865921;29;20215;-76
2024/02/22 00:52:55;;;;;;;9.53;8.93;;;11.90;99.90;;;;;;4866113;29;20220;-77
2024/02/22 00:55:23;;;;;;;9.20;8.60;;;11.80;99.90;;;;;;4865541;29;20205;-77
2024/02/22 00:57:50;;;;;;;9.43;8.83;;;11.80;99.90;;;;;;4866074;29;20208;-76
2024/02/22 01:00:17;;;;;;;9.70;9.00;;;11.80;99.90;;;;;;4865621;29;20269;-76
2024/02/22 01:02:44;;;;;;;9.43;8.80;;;11.80;99.90;;;;;;4866564;29;20213;-76
2024/02/22 01:05:10;;;;;;;9.70;8.80;;;11.80;99.90;;;;;;4864476;29;20215;-77
2024/02/22 01:07:37;;;;;;;9.80;9.10;;;11.70;99.90;;;;;;4860491;29;20202;-77
2024/02/22 01:10:05;;;;;;;9.83;9.13;;;11.70;99.90;;;;;;4865664;29;20330;-77
2024/02/22 01:12:33;;;;;;;10.13;9.53;;;11.70;99.90;;;;;;4864007;29;20237;-77
2024/02/22 01:15:00;;;;;;;9.23;8.63;;;11.70;99.90;;;;;;4866001;29;20209;-76
2024/02/22 01:17:27;;;;;;;10.27;9.57;;;11.60;99.90;;;;;;4864129;29;20213;-76
2024/02/22 01:19:54;;;;;;;9.90;9.20;;;11.60;99.90;;;;;;4868333;29;20224;-77
2024/02/22 01:22:20;;;;;;;9.60;8.90;;;11.50;99.90;;;;;;4865040;29;20220;-77
2024/02/22 01:24:47;;;;;;;9.77;9.17;;;11.50;99.90;;;;;;4865788;29;20209;-77
2024/02/22 01:27:14;;;;;;;9.83;9.07;;;11.40;99.90;;;;;;4865509;29;20229;-77
2024/02/22 01:29:43;;;;;;;9.43;8.83;;;11.40;99.90;;;;;;4863912;29;20634;-77
2024/02/22 01:32:10;;;;;;;9.47;8.87;;;11.40;99.90;;;;;;4879490;29;20277;-76
2024/02/22 01:34:36;;;;;;;9.70;9.10;;;11.40;99.90;;;;;;4865351;29;20212;-77
2024/02/22 01:37:03;;;;;;;9.60;9.00;;;11.30;99.90;;;;;;4865276;29;20209;-77
2024/02/22 01:39:30;;;;;;;9.50;8.90;;;11.30;99.90;;;;;;4865058;29;20205;-76
2024/02/22 01:41:57;;;;;;;9.50;8.90;;;11.30;99.90;;;;;;4867276;29;20239;-77
2024/02/22 01:44:27;;;;;;;9.53;8.83;;;11.30;99.90;;;;;;4865514;29;20224;-77
2024/02/22 01:46:56;;;;;;;9.60;9.00;;;11.20;99.90;;;;;;4866011;29;20227;-77
2024/02/22 01:49:23;;;;;;;10.10;9.40;;;11.20;99.90;;;;;;4865483;29;20678;-76
2024/02/22 01:51:53;;;;;;;10.00;9.20;;;11.20;99.90;;;;;;4865332;29;20296;-77
2024/02/22 01:54:19;;;;;;;9.47;8.87;;;11.10;99.90;;;;;;4865351;29;20269;-76
2024/02/22 01:56:46;;;;;;;9.67;9.07;;;11.10;99.90;;;;;;4864390;29;20707;-77
2024/02/22 01:59:14;;;;;;;10.00;9.40;;;11.10;99.90;;;;;;4865205;29;20208;-77
2024/02/22 02:01:42;;;;;;;9.57;8.87;;;11.10;99.90;;;;;;4863355;29;20280;-77
2024/02/22 02:04:12;;;;;;;9.90;9.20;;;11.00;99.90;;;;;;4868840;29;20259;-76
2024/02/22 02:06:40;;;;;;;9.80;9.20;;;11.00;99.90;;;;;;4863673;29;20284;-76
2024/02/22 02:09:08;;;;;;;9.70;9.03;;;11.00;99.90;;;;;;4864632;29;20200;-76
2024/02/22 02:11:34;;;;;;;9.90;9.07;;;11.00;99.90;;;;;;4864842;29;20242;-77
2024/02/22 02:14:01;;;;;;;9.30;8.70;;;11.00;99.90;;;;;;4864786;29;20215;-77
2024/02/22 02:16:28;;;;;;;9.60;8.90;;;11.00;99.90;;;;;;4864195;29;20201;-77
2024/02/22 02:18:55;;;;;;;9.73;9.07;;;10.90;99.90;;;;;;4863354;29;20223;-77
2024/02/22 02:21:31;;;;;;;8.80;8.30;;;10.90;99.90;;;;;;4867558;29;20288;-77
2024/02/22 02:24:12;;;;;;;10.17;9.50;;;10.90;99.90;;;;;;4860960;29;20262;-77
2024/02/22 02:26:40;;;;;;;9.17;8.57;;;10.80;99.90;;;;;;4875318;29;20220;-77
2024/02/22 02:29:07;;;;;;;9.20;8.60;;;10.80;99.90;;;;;;4870813;29;20841;-77
2024/02/22 02:31:34;;;;;;;9.43;8.83;;;10.80;99.90;;;;;;4864443;29;20256;-77
2024/02/22 02:34:01;;;;;;;9.63;9.03;;;10.80;99.90;;;;;;4863904;29;20212;-76
2024/02/22 02:36:27;;;;;;;9.27;8.60;;;10.80;99.90;;;;;;4864369;29;20268;-77
2024/02/22 02:38:54;;;;;;;9.60;8.90;;;10.70;99.90;;;;;;4863962;29;20235;-77
2024/02/22 02:41:21;;;;;;;9.40;8.73;;;10.70;99.90;;;;;;4864087;29;20758;-77
2024/02/22 02:43:49;;;;;;;8.80;8.30;;;10.70;99.90;;;;;;4863999;29;20259;-76
2024/02/22 02:46:16;;;;;;;9.17;8.60;;;10.70;99.90;;;;;;4863743;29;20255;-76
2024/02/22 02:48:43;;;;;;;9.37;8.67;;;10.60;99.90;;;;;;4870641;29;20206;-77
2024/02/22 02:51:09;;;;;;;9.37;8.67;;;10.60;99.90;;;;;;4863288;29;20724;-77
2024/02/22 02:53:36;;;;;;;8.90;8.30;;;10.60;99.90;;;;;;4859007;29;20736;-75
2024/02/22 02:56:03;;;;;;;8.70;8.10;;;10.60;99.90;;;;;;4860612;29;20207;-77
2024/02/22 02:58:30;;;;;;;8.70;8.20;;;10.60;99.90;;;;;;4863273;29;20205;-76
2024/02/22 03:00:58;;;;;;;8.50;8.00;;;10.50;99.90;;;;;;4863656;29;20228;-77
2024/02/22 03:03:25;;;;;;;8.87;8.37;;;10.50;99.90;;;;;;4865517;29;20672;-76
2024/02/22 03:05:52;;;;;;;8.90;8.30;;;10.50;99.90;;;;;;4863217;29;20217;-76
2024/02/22 03:08:19;;;;;;;8.80;8.20;;;10.50;99.90;;;;;;4863981;29;20233;-76
2024/02/22 03:10:46;;;;;;;9.17;8.57;;;10.50;99.90;;;;;;4862128;29;20240;-76
2024/02/22 03:13:13;;;;;;;9.03;8.40;;;10.50;99.90;;;;;;4877911;29;20211;-77
2024/02/22 03:15:40;;;;;;;8.87;8.23;;;10.40;99.90;;;;;;4861321;29;20211;-77
2024/02/22 03:18:08;;;;;;;9.10;8.50;;;10.40;99.90;;;;;;4869988;29;20242;-76
2024/02/22 03:20:35;;;;;;;8.70;8.20;;;10.40;99.90;;;;;;4863401;29;20276;-77
2024/02/22 03:23:03;;;;;;;9.13;8.53;;;10.40;99.90;;;;;;4863918;29;20212;-77
2024/02/22 03:25:30;;;;;;;8.30;7.80;;;10.40;99.90;;;;;;4863403;29;20208;-77
2024/02/22 03:27:58;;;;;;;8.80;8.30;;;10.40;99.90;;;;;;4863114;29;20783;-77
2024/02/22 03:30:25;;;;;;;9.30;8.70;;;10.40;99.90;;;;;;4863440;29;20199;-76
2024/02/22 03:32:52;;;;;;;8.80;8.30;;;10.40;99.90;;;;;;4864377;29;20246;-76
2024/02/22 03:35:23;;;;;;;8.50;8.00;;;10.40;99.90;;;;;;4863446;29;20311;-76
2024/02/22 03:37:50;;;;;;;9.50;8.90;;;10.40;99.90;;;;;;4863461;29;20195;-77
2024/02/22 03:40:17;;;;;;;8.80;8.20;;;10.40;99.90;;;;;;4867994;29;20222;-77
2024/02/22 03:42:44;;;;;;;8.50;8.00;;;10.40;99.90;;;;;;4856769;29;20217;-75
2024/02/22 03:45:11;;;;;;;8.97;8.37;;;10.30;99.90;;;;;;4862544;29;20198;-77
2024/02/22 03:47:38;;;;;;;8.60;8.10;;;10.40;99.90;;;;;;4865038;29;20223;-76
2024/02/22 03:50:05;;;;;;;8.60;8.10;;;10.40;99.90;;;;;;4864191;29;20207;-77
2024/02/22 03:52:33;;;;;;;8.60;8.00;;;10.40;99.90;;;;;;4878531;29;20233;-77
2024/02/22 03:55:00;;;;;;;8.70;8.10;;;10.40;99.90;;;;;;4864376;29;20197;-77
2024/02/22 03:57:27;;;;;;;8.53;8.03;;;10.30;99.90;;;;;;4862781;29;20275;-77
2024/02/22 03:59:54;;;;;;;8.00;7.60;;;10.40;99.90;;;;;;4874630;29;20273;-77
2024/02/22 04:02:21;;;;;;;8.63;8.13;;;10.40;99.90;;;;;;4862263;29;20224;-77
2024/02/22 04:04:50;;;;;;;8.80;8.20;;;10.30;99.90;;;;;;4863823;29;20707;-77
2024/02/22 04:07:17;;;;;;;8.60;8.10;;;10.30;99.90;;;;;;4871801;29;20227;-76
2024/02/22 04:09:45;;;;;;;8.40;7.90;;;10.30;99.90;;;;;;4862243;29;20672;-77
2024/02/22 04:12:12;;;;;;;8.33;7.90;;;10.30;99.90;;;;;;4861233;29;20260;-77
2024/02/22 04:14:39;;;;;;;7.90;7.50;;;10.30;99.90;;;;;;4876294;29;20207;-76
2024/02/22 04:17:06;;;;;;;8.53;7.83;;;10.30;99.90;;;;;;4867352;29;20204;-76
2024/02/22 04:19:33;;;;;;;8.37;7.87;;;10.30;99.90;;;;;;4862913;29;20216;-79
2024/02/22 04:22:00;;;;;;;8.20;7.70;;;10.20;99.90;;;;;;4862550;29;20708;-75
2024/02/22 04:24:27;;;;;;;8.67;8.17;;;10.20;99.90;;;;;;4861657;29;20580;-76
2024/02/22 04:26:55;;;;;;;8.13;7.63;;;10.20;99.90;;;;;;4860069;29;20290;-77
2024/02/22 04:29:21;;;;;;;8.87;8.30;;;10.20;99.90;;;;;;4877028;29;20207;-76
2024/02/22 04:31:48;;;;;;;8.40;7.90;;;10.20;99.90;;;;;;4860195;29;20249;-76
2024/02/22 04:34:15;;;;;;;9.00;8.50;;;10.20;99.90;;;;;;4861966;29;20203;-76
2024/02/22 04:36:42;;;;;;;8.80;8.20;;;10.10;99.90;;;;;;4863765;29;20199;-77
2024/02/22 04:39:10;;;;;;;8.57;8.07;;;10.10;99.90;;;;;;4868856;29;20218;-77
2024/02/22 04:41:37;;;;;;;8.80;8.20;;;10.10;99.90;;;;;;4863177;29;20295;-76
2024/02/22 04:44:05;;;;;;;8.57;8.07;;;10.20;99.90;;;;;;4862576;29;20228;-77
2024/02/22 04:46:35;;;;;;;8.30;7.80;;;10.10;99.90;;;;;;4863743;29;20309;-76
2024/02/22 04:49:04;;;;;;;8.43;7.93;;;10.10;99.90;;;;;;4863162;29;20660;-76
2024/02/22 04:51:31;;;;;;;8.63;8.13;;;10.10;99.90;;;;;;4869815;29;20302;-76
2024/02/22 04:53:58;;;;;;;9.50;8.90;;;10.20;99.90;;;;;;4861736;29;20236;-76
2024/02/22 04:56:24;;;;;;;9.07;8.57;;;10.20;99.90;;;;;;4859517;29;20263;-77
2024/02/22 04:58:51;;;;;;;8.77;8.33;;;10.20;99.90;;;;;;4876729;29;20208;-77
2024/02/22 05:01:19;;;;;;;9.20;8.70;;;10.20;99.90;;;;;;4863133;29;20267;-76
2024/02/22 05:03:47;;;;;;;8.57;8.00;;;10.20;99.90;;;;;;4860659;29;20208;-76
2024/02/22 05:06:14;;;;;;;8.93;8.43;;;10.20;99.90;;;;;;4859422;29;20300;-76
2024/02/22 05:08:41;;;;;;;9.10;8.60;;;10.20;99.90;;;;;;4862400;29;20232;-76
2024/02/22 05:11:08;;;;;;;8.73;8.23;;;10.20;99.90;;;;;;4859476;29;20241;-76
2024/02/22 05:13:34;;;;;;;8.70;8.20;;;10.20;99.90;;;;;;4860020;29;20227;-76
2024/02/22 05:16:01;;;;;;;9.00;8.50;;;10.20;99.90;;;;;;4860365;29;20605;-76
2024/02/22 05:18:29;;;;;;;8.97;8.47;;;10.20;99.90;;;;;;4859944;29;20210;-76
2024/02/22 05:20:56;;;;;;;8.93;8.43;;;10.20;99.90;;;;;;4856083;29;20713;-76
2024/02/22 05:23:25;;;;;;;9.00;8.50;;;10.20;99.90;;;;;;4857901;29;20667;-76
2024/02/22 05:25:51;;;;;;;9.27;8.70;;;10.10;99.90;;;;;;4857158;29;20257;-77
2024/02/22 05:28:18;;;;;;;9.20;8.70;;;10.10;99.90;;;;;;4858940;29;20223;-77
2024/02/22 05:30:45;;;;;;;9.50;8.90;;;10.10;99.90;;;;;;4861487;29;20234;-76
2024/02/22 05:33:12;;;;;;;9.80;9.20;;;10.10;99.90;;;;;;4857288;29;20216;-76
2024/02/22 05:35:40;;;;;;;9.60;8.90;;;10.10;99.90;;;;;;4860518;29;20195;-76
2024/02/22 05:38:07;;;;;;;9.80;9.27;;;10.00;99.90;;;;;;4856895;29;20623;-77
2024/02/22 05:40:33;;;;;;;9.60;9.00;;;10.00;99.90;;;;;;4864974;29;20662;-76
2024/02/22 05:43:00;;;;;;;9.20;8.70;;;10.00;99.90;;;;;;4860849;29;20211;-76
2024/02/22 05:45:42;;;;;;;9.50;9.00;;;10.00;99.90;;;;;;4859749;29;20206;-76
2024/02/22 05:48:09;;;;;;;9.30;8.80;;;9.90;99.90;;;;;;4859751;29;20282;-76
2024/02/22 05:50:36;;;;;;;9.33;8.60;;;9.90;99.90;;;;;;4857440;29;20227;-75
2024/02/22 05:53:04;;;;;;;9.73;9.13;;;9.90;99.90;;;;;;4866303;29;20216;-76
2024/02/22 05:55:31;;;;;;;10.03;9.43;;;9.90;99.90;;;;;;4861043;29;20206;-76
2024/02/22 05:57:58;;;;;;;9.80;9.20;;;9.90;99.90;;;;;;4860169;29;20285;-76
2024/02/22 06:00:25;;;;;;;9.70;9.20;;;9.90;99.90;;;;;;4859276;29;20624;-76
2024/02/22 06:02:52;;;;;;;9.83;9.33;;;9.90;99.90;;;;;;4859416;29;20547;-76
2024/02/22 06:05:19;;;;;;;10.10;9.50;;;9.90;99.90;;;;;;4858516;29;20214;-76
2024/02/22 06:07:45;;;;;;;9.80;9.30;;;9.90;99.90;;;;;;4860680;29;20251;-76
2024/02/22 06:10:14;;;;;;;9.60;9.10;;;9.90;99.90;;;;;;4863678;29;20208;-76
2024/02/22 06:12:43;;;;;;;10.10;9.60;;;9.90;99.90;;;;;;4860817;29;20240;-77
2024/02/22 06:15:10;;;;;;;10.57;9.97;;;9.90;99.90;;;;;;4861690;29;20288;-77
2024/02/22 06:17:37;;;;;;;10.23;9.53;;;9.90;99.90;;;;;;4861914;29;20262;-77
2024/02/22 06:20:05;;;;;;;10.30;9.60;;;9.90;99.90;;;;;;4861861;29;20203;-77
2024/02/22 06:22:32;;;;;;;10.77;10.17;;;9.90;99.90;;;;;;4861780;29;20233;-77
2024/02/22 06:24:59;;;;;;;10.30;9.70;;;9.90;99.90;;;;;;4861757;29;20641;-77
2024/02/22 06:27:27;;;;;;;10.30;9.80;;;9.90;99.90;;;;;;4861597;29;20259;-77
2024/02/22 06:29:55;;;;;;;10.37;9.77;;;9.90;99.90;;;;;;4860079;29;20255;-77
2024/02/22 06:32:23;;;;;;;10.60;10.00;;;9.90;99.90;;;;;;4875493;29;20779;-76
2024/02/22 06:34:50;;;;;;;10.20;9.60;;;9.90;99.90;;;;;;4857007;29;20548;-77
2024/02/22 06:37:18;;;;;;;10.20;9.70;;;9.80;99.90;;;;;;4861451;29;20250;-76
2024/02/22 06:39:45;;;;;;;9.90;9.40;;;9.90;99.90;;;;;;4859510;29;20193;-76
2024/02/22 06:42:12;;;;;;;10.33;9.70;;;9.80;99.90;;;;;;4860002;29;20227;-76
2024/02/22 06:44:40;;;;;;;10.00;9.47;;;9.80;99.90;;;;;;4860079;29;20699;-76
2024/02/22 06:47:06;;;;;;;10.17;9.63;;;9.80;99.90;;;;;;4859420;29;20274;-77
2024/02/22 06:49:33;;;;;;;10.30;9.70;;;9.80;99.90;;;;;;4859217;29;20849;-76
2024/02/22 06:52:00;;;;;;;10.43;9.73;;;9.80;99.90;;;;;;4860185;29;20238;-76
2024/02/22 06:54:27;;;;;;;10.27;9.67;;;9.80;99.90;;;;;;4859559;29;20666;-76
2024/02/22 06:56:54;;;;;;;10.57;9.97;;;9.70;99.90;;;;;;4859474;29;20198;-76
2024/02/22 06:59:21;;;;;;;10.70;10.10;;;9.70;99.90;;;;;;4859484;29;20259;-76
2024/02/22 07:01:49;;;;;;;10.10;9.50;;;9.70;99.90;;;;;;4859617;29;20681;-77
2024/02/22 07:04:15;;;;;;;9.90;9.40;;;9.70;99.90;;;;;;4862385;29;20203;-76
2024/02/22 07:06:42;;;;;;;10.53;9.73;;;9.80;99.90;;;;;;4860178;29;20206;-76
2024/02/22 07:09:08;;;;;;;10.13;9.47;;;9.80;99.90;;;;;;4854957;29;20226;-76
2024/02/22 07:11:36;;;;;;;10.10;9.50;;;9.80;99.90;;;;;;4859162;29;20757;-77
2024/02/22 07:14:03;;;;;;;9.97;9.47;;;9.80;99.90;;;;;;4859540;29;20206;-77
2024/02/22 07:16:29;;;;;;;9.90;9.30;;;9.80;99.90;;;;;;4859470;29;20243;-76
2024/02/22 07:18:57;;;;;;;9.50;9.00;;;9.80;99.90;;;;;;4858497;29;20574;-76
2024/02/22 07:21:24;;;;;;;9.30;8.80;;;9.80;99.90;;;;;;4861767;29;20648;-76
2024/02/22 07:23:51;;;;;;;9.10;8.60;;;9.80;99.90;;;;;;4862905;29;20202;-77
2024/02/22 07:26:18;;;;;;;9.13;8.63;;;9.80;99.90;;;;;;4859372;29;20226;-76
2024/02/22 07:28:45;;;;;;;9.33;8.83;;;9.80;99.90;;;;;;4862846;29;20228;-76
2024/02/22 07:31:12;;;;;;;9.00;8.50;;;9.80;99.90;;;;;;4863041;29;20235;-77
2024/02/22 07:33:39;;;;;;;9.00;8.50;;;9.90;99.90;;;;;;4862928;29;20210;-76
2024/02/22 07:36:08;;;;;;;9.70;9.10;;;9.90;99.90;;;;;;4863236;29;20204;-77
2024/02/22 07:38:36;;;;;;;9.23;8.70;;;9.90;99.90;;;;;;4861692;29;20632;-76
2024/02/22 07:41:07;;;;;;;9.27;8.77;;;9.90;99.90;;;;;;4858615;29;20230;-76
2024/02/22 07:43:35;;;;;;;9.40;8.70;;;9.90;99.90;;;;;;4860112;29;20204;-76
2024/02/22 07:46:03;;;;;;;9.40;8.90;;;10.00;99.90;;;;;;4858429;29;20199;-76
2024/02/22 07:48:30;;;;;;;9.60;9.10;;;10.00;99.90;;;;;;4859444;29;20650;-76
2024/02/22 07:50:57;;;;;;;9.77;9.20;;;10.00;99.90;;;;;;4862960;29;20734;-76
2024/02/22 07:53:25;;;;;;;8.97;8.47;;;10.10;99.90;;;;;;4862674;29;20282;-76
2024/02/22 07:55:52;;;;;;;9.27;8.77;;;10.10;99.90;;;;;;4861502;29;20263;-76
2024/02/22 07:58:19;;;;;;;9.50;9.00;;;10.10;99.90;;;;;;4862576;29;20206;-76
2024/02/22 08:00:46;;;;;;;9.07;8.57;;;10.10;99.90;;;;;;4862246;29;20231;-76
2024/02/22 08:03:13;;;;;;;9.07;8.57;;;10.10;99.90;;;;;;4864386;29;20214;-76
2024/02/22 08:05:40;;;;;;;9.23;8.73;;;10.10;99.90;;;;;;4864768;29;20208;-76
2024/02/22 08:08:07;;;;;;;9.47;8.97;;;10.10;99.90;;;;;;4862774;29;20656;-76
2024/02/22 08:10:36;;;;;;;9.87;9.37;;;10.20;99.90;;;;;;4863712;29;20232;-76
2024/02/22 08:13:04;;;;;;;9.40;8.90;;;10.20;99.90;;;;;;4860391;29;20208;-76
2024/02/22 08:15:32;;;;;;;8.50;8.10;;;10.20;99.90;;;;;;4875814;29;20203;-76
2024/02/22 08:18:00;;;;;;;9.20;8.70;;;10.30;99.90;;;;;;4861479;29;20207;-76
2024/02/22 08:20:27;;;;;;;8.90;8.40;;;10.30;99.90;;;;;;4866233;29;20679;-77
2024/02/22 08:22:53;;;;;;;9.10;8.60;;;10.30;99.90;;;;;;4862103;29;20577;-76
2024/02/22 08:25:20;;;;;;;9.20;8.70;;;10.30;99.90;;;;;;4862379;29;20255;-76
2024/02/22 08:27:49;;;;;;;8.70;8.30;;;10.30;99.90;;;;;;4860445;29;20230;-76
2024/02/22 08:30:16;;;;;;;9.10;8.60;;;10.30;99.90;;;;;;4864732;29;20204;-77
2024/02/22 08:32:43;;;;;;;9.17;8.67;;;10.40;99.90;;;;;;4864575;29;20221;-76
2024/02/22 08:35:10;;;;;;;9.10;8.60;;;10.50;99.90;;;;;;4865238;29;20258;-76
2024/02/22 08:37:36;;;;;;;9.20;8.70;;;10.50;99.90;;;;;;4865262;29;20217;-77
2024/02/22 08:40:04;;;;;;;9.30;8.80;;;10.60;99.90;;;;;;4862596;29;20664;-76
2024/02/22 08:42:31;;;;;;;9.20;8.70;;;10.60;99.90;;;;;;4865324;29;20229;-76
2024/02/22 08:44:59;;;;;;;9.13;8.63;;;10.80;99.90;;;;;;4876799;29;20233;-77
2024/02/22 08:47:25;;;;;;;2.00;1.90;;;10.80;99.90;;;;;;4868667;29;20220;-76
2024/02/22 08:49:52;;;;;;;5.63;5.33;;;10.80;99.90;;;;;;4863938;29;20272;-76
2024/02/22 08:52:19;;;;;;;3.50;3.30;;;10.80;99.90;;;;;;4860695;29;20293;-76
2024/02/22 08:54:46;;;;;;;5.17;4.97;;;10.80;99.90;;;;;;4862143;29;20282;-76
2024/02/22 08:57:12;;;;;;;2.00;1.90;;;10.90;99.90;;;;;;4862494;29;20208;-76
2024/02/22 08:59:39;;;;;;;2.03;1.93;;;11.00;99.90;;;;;;4863314;29;20207;-76
2024/02/22 09:02:07;;;;;;;2.00;1.90;;;11.00;99.90;;;;;;4858995;29;20247;-76
2024/02/22 09:04:33;;;;;;;2.10;2.00;;;11.00;99.90;;;;;;4863030;29;20201;-76
2024/02/22 09:07:00;;;;;;;2.03;1.93;;;11.00;99.90;;;;;;4862216;29;20268;-76
2024/02/22 09:09:28;;;;;;;2.10;2.00;;;11.10;99.90;;;;;;4861601;29;20225;-77
2024/02/22 09:11:55;;;;;;;2.33;1.97;;;11.10;99.90;;;;;;4861645;29;20645;-77
2024/02/22 09:14:22;;;;;;;2.10;2.00;;;11.10;99.90;;;;;;4861923;29;20205;-76
2024/02/22 09:16:49;;;;;;;2.03;1.93;;;11.20;99.90;;;;;;4861611;29;20197;-76
2024/02/22 09:19:17;;;;;;;2.60;2.50;;;11.30;99.90;;;;;;4861731;29;20209;-77
2024/02/22 09:21:46;;;;;;;4.20;4.00;;;11.40;99.90;;;;;;4860702;29;20785;-77
2024/02/22 09:24:12;;;;;;;4.13;3.93;;;11.50;99.90;;;;;;4876699;29;20205;-76
2024/02/22 09:26:40;;;;;;;4.20;4.00;;;11.40;99.90;;;;;;4860917;29;20292;-76
2024/02/22 09:29:06;;;;;;;4.07;3.87;;;11.40;99.90;;;;;;4861537;29;20210;-77
2024/02/22 09:31:33;;;;;;;4.27;4.00;;;11.40;99.90;;;;;;4859217;29;20234;-76
2024/02/22 09:34:01;;;;;;;4.30;4.10;;;11.30;99.90;;;;;;4864963;29;20224;-76
2024/02/22 09:36:29;;;;;;;4.00;3.80;;;11.30;99.90;;;;;;4861048;29;20684;-76
2024/02/22 09:38:55;;;;;;;3.90;3.70;;;11.20;99.90;;;;;;4861088;29;20559;-76
2024/02/22 09:41:22;;;;;;;4.20;4.00;;;11.20;99.90;;;;;;4861471;29;20716;-76
2024/02/22 09:43:51;;;;;;;4.13;3.93;;;11.30;99.90;;;;;;4860877;29;20212;-76
2024/02/22 09:46:19;;;;;;;4.20;4.00;;;11.30;99.90;;;;;;4861286;29;20212;-76
2024/02/22 09:48:46;;;;;;;4.30;4.10;;;11.40;99.90;;;;;;4860765;29;20960;-76
2024/02/22 09:51:13;;;;;;;4.20;4.00;;;11.40;99.90;;;;;;4861194;29;20229;-76
2024/02/22 09:53:44;;;;;;;3.87;3.70;;;11.40;99.90;;;;;;4860977;29;20255;-76
2024/02/22 09:56:14;;;;;;;4.30;3.10;;;11.50;99.90;;;;;;4857003;29;20211;-76
2024/02/22 09:58:41;;;;;;;1.90;1.90;;;11.60;99.90;;;;;;4857376;29;20720;-77
2024/02/22 10:01:08;;;;;;;1.90;1.90;;;11.60;99.90;;;;;;4854030;29;20646;-76
2024/02/22 10:03:35;;;;;;;5.30;5.00;;;11.70;99.90;;;;;;4861325;29;20213;-76
2024/02/22 10:06:02;;;;;;;6.33;6.03;;;11.70;99.90;;;;;;4862048;29;20765;-76
2024/02/22 10:08:29;;;;;;;6.80;6.50;;;11.70;99.90;;;;;;4866000;29;20222;-76
2024/02/22 10:11:07;;;;;;;8.20;7.80;;;11.80;99.90;;;;;;4857857;29;20231;-76
2024/02/22 10:13:35;;;;;;;8.30;7.90;;;11.80;99.90;;;;;;4870514;29;20214;-76
2024/02/22 10:16:10;;;;;;;8.17;7.77;;;12.00;99.90;;;;;;4860521;29;20262;-77
2024/02/22 10:18:37;;;;;;;8.40;8.00;;;12.00;99.90;;;;;;4855343;29;20210;-76
2024/02/22 10:21:15;;;;;;;6.80;6.50;;;12.10;99.90;;;;;;4859275;29;20249;-76
2024/02/22 10:23:44;;;;;;;8.77;8.37;;;12.20;99.90;;;;;;4867023;29;20212;-76
2024/02/22 10:26:12;;;;;;;7.03;6.73;;;12.30;99.90;;;;;;4853503;29;20282;-76
2024/02/22 10:28:40;;;;;;;8.20;7.80;;;12.20;99.90;;;;;;4858672;29;20223;-76
2024/02/22 10:31:08;;;;;;;8.20;7.80;;;12.20;99.90;;;;;;4859083;29;20234;-77
2024/02/22 10:33:35;;;;;;;8.10;7.70;;;12.20;99.90;;;;;;4854592;29;20217;-76
2024/02/22 10:36:03;;;;;;;8.20;7.80;;;12.20;99.90;;;;;;4859071;29;20233;-76
2024/02/22 10:38:30;;;;;;;8.67;8.17;;;12.10;99.90;;;;;;4858626;29;20202;-76
2024/02/22 10:40:58;;;;;;;8.47;7.87;;;12.10;99.90;;;;;;4858674;29;20226;-76
2024/02/22 10:43:27;;;;;;;8.40;8.00;;;12.00;99.90;;;;;;4858777;29;20290;-76
2024/02/22 10:45:54;;;;;;;8.30;7.90;;;12.00;99.90;;;;;;4858710;29;20263;-76
2024/02/22 10:48:21;;;;;;;8.40;7.90;;;12.10;99.90;;;;;;4858838;29;20222;-76
2024/02/22 10:50:49;;;;;;;8.47;8.07;;;12.00;99.90;;;;;;4854575;29;20240;-76
2024/02/22 10:53:17;;;;;;;7.63;7.23;;;12.00;99.90;;;;;;4859318;29;20198;-76
2024/02/22 10:55:50;;;;;;;7.97;7.47;;;12.10;99.90;;;;;;4858580;29;20233;-76
2024/02/22 10:58:19;;;;;;;7.80;7.40;;;12.10;99.90;;;;;;4852064;29;20202;-76
2024/02/22 11:00:48;;;;;;;7.03;6.70;;;12.10;99.90;;;;;;4857569;29;20230;-76
2024/02/22 11:03:16;;;;;;;8.30;7.90;;;12.10;99.90;;;;;;4859245;29;20198;-76
2024/02/22 11:05:47;;;;;;;8.73;8.20;;;12.10;99.90;;;;;;4859037;29;20278;-76
2024/02/22 11:08:20;;;;;;;8.47;7.97;;;12.10;99.90;;;;;;4858749;29;20254;-76
2024/02/22 11:10:47;;;;;;;8.50;8.10;;;12.10;99.90;;;;;;4858908;29;20225;-76
2024/02/22 11:13:15;;;;;;;8.20;7.80;;;12.10;99.90;;;;;;4858799;29;20202;-76
2024/02/22 11:15:41;;;;;;;7.20;6.80;;;12.20;99.90;;;;;;4854522;29;20264;-76
2024/02/22 11:18:09;;;;;;;8.40;8.00;;;12.20;99.90;;;;;;4857973;29;20265;-76
2024/02/22 11:20:37;;;;;;;9.00;8.50;;;12.20;99.90;;;;;;4858637;29;20218;-76
2024/02/22 11:23:13;;;;;;;8.70;8.30;;;12.30;99.90;;;;;;4858828;29;20229;-76
2024/02/22 11:25:39;;;;;;;8.90;8.40;;;12.30;99.90;;;;;;4858759;29;20279;-76
2024/02/22 11:28:08;;;;;;;5.03;4.83;;;12.20;99.90;;;;;;4857282;29;20213;-76
2024/02/22 11:30:35;;;;;;;6.67;6.20;;;12.10;99.90;;;;;;4864082;29;20229;-76
2024/02/22 11:33:02;;;;;;;7.77;7.37;;;12.10;99.90;;;;;;4858718;29;20217;-76
2024/02/22 11:35:30;;;;;;;11.07;10.50;;;12.10;99.90;;;;;;4852692;29;20322;-76
2024/02/22 11:37:58;;;;;;;6.20;5.90;;;12.00;99.90;;;;;;4858570;29;20210;-76
2024/02/22 11:40:26;;;;;;;5.77;5.47;;;12.00;99.90;;;;;;4858270;29;20202;-76
2024/02/22 11:42:56;;;;;;;9.30;8.80;;;12.00;99.90;;;;;;4854297;29;20313;-76
2024/02/22 11:45:23;;;;;;;9.10;8.60;;;11.90;99.90;;;;;;4858647;29;20263;-76
2024/02/22 11:47:49;;;;;;;8.57;8.17;;;11.90;99.90;;;;;;4858693;29;20246;-76
2024/02/22 11:50:17;;;;;;;9.07;8.60;;;12.00;99.90;;;;;;4856741;29;20252;-76
2024/02/22 11:52:46;;;;;;;9.00;8.50;;;11.90;99.90;;;;;;4858684;29;20202;-76
2024/02/22 11:55:13;;;;;;;9.00;8.60;;;11.80;99.90;;;;;;4858098;29;20210;-76
2024/02/22 11:57:41;;;;;;;8.90;8.40;;;11.90;99.90;;;;;;4858456;29;20757;-76
2024/02/22 12:00:09;;;;;;;8.83;8.40;;;12.00;99.90;;;;;;4858331;29;20209;-76
2024/02/22 12:02:40;;;;;;;9.37;8.87;;;12.00;99.90;;;;;;4857089;29;20708;-76
2024/02/22 12:05:09;;;;;;;9.53;9.03;;;12.20;99.90;;;;;;4857447;29;20613;-76
2024/02/22 12:07:38;;;;;;;9.30;8.80;;;12.40;99.90;;;;;;4859645;29;20229;-76
2024/02/22 12:10:09;;;;;;;9.57;9.07;;;12.60;99.90;;;;;;4861417;29;20632;-76
2024/02/22 12:12:39;;;;;;;9.10;8.60;;;12.80;99.90;;;;;;4861704;29;20202;-75
2024/02/22 12:15:06;;;;;;;9.70;9.10;;;13.10;99.90;;;;;;4875638;29;20628;-79
2024/02/22 12:17:34;;;;;;;5.87;5.13;;;13.10;99.90;;;;;;4862737;29;20203;-76
2024/02/22 12:20:02;;;;;;;9.70;9.20;;;13.00;99.90;;;;;;4861269;29;20203;-77
2024/02/22 12:22:31;;;;;;;9.70;9.10;;;13.00;99.90;;;;;;4862716;29;20218;-76
2024/02/22 12:24:58;;;;;;;9.83;9.33;;;12.80;99.90;;;;;;4862242;29;20621;-76
2024/02/22 12:27:27;;;;;;;9.90;9.40;;;12.80;99.90;;;;;;4859550;29;20738;-77
2024/02/22 12:29:54;;;;;;;9.90;9.30;;;12.70;99.90;;;;;;4861285;29;20218;-76
2024/02/22 12:32:21;;;;;;;9.50;9.00;;;12.70;99.90;;;;;;4860284;29;20726;-76
2024/02/22 12:34:51;;;;;;;9.57;9.07;;;12.50;99.90;;;;;;4860227;29;20201;-76
2024/02/22 12:37:18;;;;;;;9.57;9.07;;;12.50;99.90;;;;;;4860158;29;20569;-76
2024/02/22 12:39:45;;;;;;;9.60;9.10;;;12.40;99.90;;;;;;4859957;29;20247;-76
2024/02/22 12:42:11;;;;;;;9.50;9.00;;;12.40;99.90;;;;;;4861968;29;20278;-76
2024/02/22 12:44:40;;;;;;;8.90;8.30;;;12.40;99.90;;;;;;4860668;29;20230;-76
2024/02/22 12:47:11;;;;;;;9.07;8.57;;;12.30;99.90;;;;;;4861585;29;20632;-76
2024/02/22 12:49:38;;;;;;;9.07;8.50;;;12.30;99.90;;;;;;4861343;29;20274;-76